Time;durP1;ratioP1;P1;durP2;ratioP2;P2;SDS_P1;SDS_P2;PMS_P1;PMS_P2;Temp;Humidity;BMP_temperature;BMP_pressure;BME280_temperature;BME280_humidity;BME280_pressure;Samples;Min_cycle;Max_cycle;Signal;HPM_P1;HPM_P2
2022/03/22 00:00:31;;;;;;;32.47;11.82;;;;;;;;;;6272880;22;20011;-70
2022/03/22 00:02:57;;;;;;;37.40;12.27;;;;;;;;;;6272664;22;20053;-71
2022/03/22 00:05:23;;;;;;;30.15;12.15;;;;;;;;;;6245561;22;20035;-72
2022/03/22 00:07:49;;;;;;;33.78;12.25;;;;;;;;;;6245521;22;20011;-71
2022/03/22 00:10:15;;;;;;;40.05;12.55;;;;;;;;;;6245747;22;20024;-71
2022/03/22 00:12:41;;;;;;;37.22;14.48;;;;;;;;;;6272524;22;20045;-72
2022/03/22 00:15:08;;;;;;;47.55;14.98;;;;;;;;;;6245479;22;20120;-71
2022/03/22 00:17:34;;;;;;;35.40;13.27;;;;;;;;;;6272789;22;20019;-71
2022/03/22 00:20:00;;;;;;;34.47;13.63;;;;;;;;;;6272558;22;20015;-71
2022/03/22 00:22:26;;;;;;;38.28;13.05;;;;;;;;;;6272747;22;20015;-72
2022/03/22 00:24:51;;;;;;;40.20;13.77;;;;;;;;;;6272617;22;20069;-72
2022/03/22 00:27:17;;;;;;;36.28;13.77;;;;;;;;;;6272694;22;20020;-70
2022/03/22 00:29:43;;;;;;;35.15;12.30;;;;;;;;;;6271917;22;20027;-72
2022/03/22 00:32:09;;;;;;;36.05;12.70;;;;;;;;;;6272557;22;20008;-70
2022/03/22 00:34:41;;;;;;;32.30;12.98;;;;;;;;;;6271935;22;20020;-73
2022/03/22 00:37:08;;;;;;;36.25;12.88;;;;;;;;;;6272384;22;20015;-71
2022/03/22 00:39:34;;;;;;;34.35;12.15;;;;;;;;;;6272124;22;20034;-70
2022/03/22 00:42:00;;;;;;;41.78;12.30;;;;;;;;;;6272884;22;20011;-71
2022/03/22 00:44:26;;;;;;;29.05;12.55;;;;;;;;;;6272006;22;20414;-71
2022/03/22 00:46:52;;;;;;;43.83;14.35;;;;;;;;;;6271810;22;20011;-72
2022/03/22 00:49:18;;;;;;;44.30;13.43;;;;;;;;;;6272052;22;20028;-72
2022/03/22 00:51:44;;;;;;;42.72;12.85;;;;;;;;;;6270439;22;20012;-73
2022/03/22 00:54:09;;;;;;;36.47;12.57;;;;;;;;;;6272059;22;20447;-71
2022/03/22 00:56:35;;;;;;;36.97;12.07;;;;;;;;;;6271636;22;20470;-71
2022/03/22 01:01:46;;;;;;;38.10;11.77;;;;;;;;;;6272535;22;20008;-71
2022/03/22 01:04:12;;;;;;;38.53;12.85;;;;;;;;;;6272003;22;20452;-71
2022/03/22 01:06:38;;;;;;;38.92;12.05;;;;;;;;;;6244854;22;20032;-71
2022/03/22 01:09:04;;;;;;;42.08;13.15;;;;;;;;;;6272162;22;20360;-72
2022/03/22 01:11:30;;;;;;;49.83;14.07;;;;;;;;;;6271781;22;20008;-70
2022/03/22 01:13:56;;;;;;;32.17;12.55;;;;;;;;;;6270426;22;20455;-70
2022/03/22 01:16:22;;;;;;;33.67;12.05;;;;;;;;;;6272258;22;20039;-70
2022/03/22 01:18:48;;;;;;;43.72;12.18;;;;;;;;;;6245172;22;20023;-70
2022/03/22 01:21:14;;;;;;;33.05;12.50;;;;;;;;;;6272248;22;20008;-72
2022/03/22 01:23:40;;;;;;;46.83;13.65;;;;;;;;;;6271940;22;20012;-72
2022/03/22 01:26:06;;;;;;;31.17;13.18;;;;;;;;;;6272465;22;20007;-71
2022/03/22 01:28:32;;;;;;;32.90;12.15;;;;;;;;;;6273072;22;20016;-71
2022/03/22 01:30:58;;;;;;;29.75;11.40;;;;;;;;;;6274446;22;20103;-72
2022/03/22 01:33:23;;;;;;;26.88;11.95;;;;;;;;;;6244798;22;20444;-71
2022/03/22 01:35:49;;;;;;;23.10;11.52;;;;;;;;;;6247396;22;20011;-71
2022/03/22 01:38:15;;;;;;;28.27;10.25;;;;;;;;;;6248455;22;20086;-71
2022/03/22 01:40:42;;;;;;;30.55;11.13;;;;;;;;;;6275043;22;20456;-71
2022/03/22 01:43:08;;;;;;;25.58;10.70;;;;;;;;;;6276130;22;20014;-71
2022/03/22 01:45:34;;;;;;;27.50;11.52;;;;;;;;;;6275934;22;20011;-71
2022/03/22 01:48:00;;;;;;;29.63;11.23;;;;;;;;;;6277444;22;20011;-71
2022/03/22 01:50:26;;;;;;;27.33;11.43;;;;;;;;;;6272334;22;20106;-72
2022/03/22 01:52:53;;;;;;;25.15;11.77;;;;;;;;;;6277066;22;20007;-72
2022/03/22 01:55:19;;;;;;;33.08;10.75;;;;;;;;;;6251886;22;20011;-71
2022/03/22 01:57:46;;;;;;;47.03;13.55;;;;;;;;;;6277950;22;20023;-73
2022/03/22 02:00:16;;;;;;;27.70;11.85;;;;;;;;;;6224048;22;20015;-72
2022/03/22 02:08:11;;;;;;;29.83;12.40;;;;;;;;;;6273757;22;20515;-71
2022/03/22 02:10:38;;;;;;;41.67;13.93;;;;;;;;;;6274456;22;20019;-71
2022/03/22 02:13:04;;;;;;;25.83;11.85;;;;;;;;;;6247424;22;20043;-71
2022/03/22 02:15:31;;;;;;;35.22;12.27;;;;;;;;;;6246599;22;20023;-73
2022/03/22 02:17:57;;;;;;;17.48;8.43;;;;;;;;;;6246525;22;20019;-70
2022/03/22 02:20:23;;;;;;;26.05;11.60;;;;;;;;;;6245377;22;20081;-71
2022/03/22 02:22:55;;;;;;;25.17;10.73;;;;;;;;;;6270220;22;20445;-72
2022/03/22 02:25:21;;;;;;;34.33;11.75;;;;;;;;;;6272205;22;20015;-73
2022/03/22 02:27:47;;;;;;;31.02;12.50;;;;;;;;;;6245446;22;20011;-71
2022/03/22 02:30:13;;;;;;;37.55;13.07;;;;;;;;;;6194729;22;20410;-72
2022/03/22 02:32:39;;;;;;;30.33;10.35;;;;;;;;;;6272294;22;20012;-71
2022/03/22 02:35:07;;;;;;;34.35;11.07;;;;;;;;;;6272580;22;20016;-70
2022/03/22 02:37:33;;;;;;;21.13;11.57;;;;;;;;;;6272288;22;20012;-72
2022/03/22 02:39:58;;;;;;;26.27;11.60;;;;;;;;;;6244424;22;20016;-70
2022/03/22 02:42:24;;;;;;;26.00;11.70;;;;;;;;;;6271661;22;20007;-71
2022/03/22 02:44:50;;;;;;;21.25;11.25;;;;;;;;;;6271767;22;20018;-70
2022/03/22 02:47:17;;;;;;;29.95;12.02;;;;;;;;;;6221341;22;20015;-72
2022/03/22 02:49:43;;;;;;;19.42;11.40;;;;;;;;;;6272089;22;20019;-72
2022/03/22 02:52:08;;;;;;;20.38;9.55;;;;;;;;;;6272211;22;20019;-74
2022/03/22 02:54:34;;;;;;;33.33;9.95;;;;;;;;;;6271280;22;20098;-73
2022/03/22 02:57:00;;;;;;;22.02;11.95;;;;;;;;;;6239593;23;20063;-71
2022/03/22 02:59:26;;;;;;;25.88;11.25;;;;;;;;;;6239154;23;20070;-72
2022/03/22 03:01:53;;;;;;;32.85;13.57;;;;;;;;;;6213538;23;20008;-72
2022/03/22 03:04:18;;;;;;;30.95;12.50;;;;;;;;;;6240873;23;20023;-75
2022/03/22 03:06:45;;;;;;;20.75;10.68;;;;;;;;;;6214525;23;20019;-73
2022/03/22 03:09:11;;;;;;;24.00;12.25;;;;;;;;;;6241550;23;20020;-72
2022/03/22 03:11:37;;;;;;;18.75;9.95;;;;;;;;;;6244244;23;20411;-72
2022/03/22 03:16:47;;;;;;;21.83;10.90;;;;;;;;;;6197985;23;20012;-73
2022/03/22 03:19:13;;;;;;;18.40;9.80;;;;;;;;;;6246486;23;20078;-73
2022/03/22 03:21:39;;;;;;;18.45;8.27;;;;;;;;;;6245676;23;20149;-73
2022/03/22 03:24:05;;;;;;;21.08;9.90;;;;;;;;;;6247258;23;20046;-74
2022/03/22 03:26:30;;;;;;;18.63;10.13;;;;;;;;;;6247361;23;20064;-74
2022/03/22 03:28:57;;;;;;;21.90;11.73;;;;;;;;;;6247454;23;20020;-72
2022/03/22 03:31:23;;;;;;;18.45;10.38;;;;;;;;;;6248615;23;20087;-72
2022/03/22 03:33:49;;;;;;;21.60;11.68;;;;;;;;;;6248014;23;20435;-72
2022/03/22 03:36:15;;;;;;;24.95;11.73;;;;;;;;;;6198058;23;20046;-72
2022/03/22 03:38:43;;;;;;;21.38;10.85;;;;;;;;;;6248783;23;20008;-73
2022/03/22 03:43:54;;;;;;;21.45;9.70;;;;;;;;;;6248220;23;20016;-73
2022/03/22 03:49:06;;;;;;;15.32;9.25;;;;;;;;;;6246334;23;20019;-73
2022/03/22 03:51:38;;;;;;;26.17;10.50;;;;;;;;;;6218368;23;20012;-73
2022/03/22 03:54:04;;;;;;;17.15;10.43;;;;;;;;;;6245340;23;20036;-73
2022/03/22 03:56:29;;;;;;;20.65;10.15;;;;;;;;;;6251758;22;20019;-73
2022/03/22 03:58:57;;;;;;;13.20;7.28;;;;;;;;;;6248325;22;20050;-73
2022/03/22 04:01:23;;;;;;;26.13;9.85;;;;;;;;;;6249149;22;20007;-73
2022/03/22 04:03:49;;;;;;;16.95;10.05;;;;;;;;;;6276025;22;20023;-73
2022/03/22 04:06:15;;;;;;;13.48;9.15;;;;;;;;;;6275203;22;20091;-72
2022/03/22 04:08:41;;;;;;;19.55;8.48;;;;;;;;;;6273638;22;20095;-73
2022/03/22 04:11:07;;;;;;;23.52;10.00;;;;;;;;;;6274049;22;20012;-71
2022/03/22 04:13:35;;;;;;;23.27;8.25;;;;;;;;;;6275859;22;20058;-74
2022/03/22 04:16:01;;;;;;;24.75;10.82;;;;;;;;;;6275286;22;20019;-73
2022/03/22 04:18:26;;;;;;;16.02;8.57;;;;;;;;;;6248699;22;20011;-73
2022/03/22 04:20:52;;;;;;;10.55;6.30;;;;;;;;;;6274531;22;20018;-73
2022/03/22 04:23:18;;;;;;;23.00;9.02;;;;;;;;;;6274761;22;20122;-73
2022/03/22 04:25:44;;;;;;;16.77;9.55;;;;;;;;;;6274634;22;20467;-73
2022/03/22 04:33:38;;;;;;;20.45;9.55;;;;;;;;;;6251790;22;20011;-73
2022/03/22 04:36:05;;;;;;;21.20;9.90;;;;;;;;;;6245990;22;20007;-73
2022/03/22 04:38:30;;;;;;;17.63;7.93;;;;;;;;;;6245994;22;20065;-74
2022/03/22 04:40:57;;;;;;;21.50;9.13;;;;;;;;;;6221259;22;20059;-74
2022/03/22 04:43:24;;;;;;;19.13;8.70;;;;;;;;;;6274265;22;20046;-73
2022/03/22 04:45:51;;;;;;;24.15;9.93;;;;;;;;;;6246649;22;20007;-73
2022/03/22 04:48:19;;;;;;;17.98;7.93;;;;;;;;;;6245968;22;20402;-73
2022/03/22 04:50:46;;;;;;;21.67;9.85;;;;;;;;;;6220076;22;20020;-73
2022/03/22 04:58:41;;;;;;;21.02;8.48;;;;;;;;;;6271776;22;20023;-75
2022/03/22 05:01:07;;;;;;;16.13;8.30;;;;;;;;;;6244018;22;20012;-74
2022/03/22 05:03:33;;;;;;;16.45;8.60;;;;;;;;;;6245457;22;20046;-73
2022/03/22 05:09:07;;;;;;;19.00;8.48;;;;;;;;;;6148505;23;20076;-73
2022/03/22 05:11:33;;;;;;;20.52;9.20;;;;;;;;;;6148967;23;20365;-73
2022/03/22 05:13:59;;;;;;;15.35;8.25;;;;;;;;;;6209520;22;20072;-74
2022/03/22 05:16:25;;;;;;;18.58;8.57;;;;;;;;;;6220399;22;20086;-73
2022/03/22 05:18:51;;;;;;;16.70;8.65;;;;;;;;;;6271920;22;20007;-74
2022/03/22 05:21:17;;;;;;;12.85;8.35;;;;;;;;;;6272617;22;20444;-73
2022/03/22 05:23:46;;;;;;;23.65;8.45;;;;;;;;;;6245078;22;20027;-73
2022/03/22 05:26:15;;;;;;;20.75;8.73;;;;;;;;;;6246234;22;20091;-74
2022/03/22 05:28:41;;;;;;;15.60;8.68;;;;;;;;;;6244989;22;20337;-73
2022/03/22 05:31:08;;;;;;;17.75;9.23;;;;;;;;;;6244837;22;20353;-73
2022/03/22 05:33:34;;;;;;;21.08;9.32;;;;;;;;;;6272150;22;20440;-73
2022/03/22 05:36:00;;;;;;;22.83;9.38;;;;;;;;;;6244467;22;20065;-74
2022/03/22 05:38:26;;;;;;;18.60;9.40;;;;;;;;;;6244928;22;20012;-74
2022/03/22 05:40:52;;;;;;;20.25;9.60;;;;;;;;;;6244100;22;20466;-73
2022/03/22 05:43:17;;;;;;;18.15;9.80;;;;;;;;;;6244794;22;20077;-72
2022/03/22 05:45:48;;;;;;;18.73;8.65;;;;;;;;;;6271592;22;20011;-74
2022/03/22 05:48:15;;;;;;;14.35;9.07;;;;;;;;;;6271888;22;20050;-73
2022/03/22 05:50:41;;;;;;;18.90;9.68;;;;;;;;;;6243849;22;20016;-73
2022/03/22 05:53:07;;;;;;;21.33;9.52;;;;;;;;;;6244036;22;20410;-73
2022/03/22 05:55:33;;;;;;;21.60;9.32;;;;;;;;;;6244626;22;20026;-73
2022/03/22 05:57:58;;;;;;;20.23;8.63;;;;;;;;;;6271440;22;20549;-74
2022/03/22 06:00:24;;;;;;;13.35;8.60;;;;;;;;;;6243994;22;20019;-74
2022/03/22 06:02:50;;;;;;;16.10;8.73;;;;;;;;;;6271946;22;20011;-72
2022/03/22 06:05:16;;;;;;;12.85;8.57;;;;;;;;;;6272351;22;20018;-73
2022/03/22 06:07:42;;;;;;;18.52;8.77;;;;;;;;;;6271820;22;20011;-74
2022/03/22 06:10:09;;;;;;;13.70;7.57;;;;;;;;;;6244594;22;20019;-73
2022/03/22 06:12:40;;;;;;;12.63;8.73;;;;;;;;;;6240608;22;20036;-75
2022/03/22 06:15:15;;;;;;;19.38;9.35;;;;;;;;;;6192747;22;20023;-74
2022/03/22 06:17:43;;;;;;;12.95;8.38;;;;;;;;;;6270472;22;20053;-74
2022/03/22 06:20:10;;;;;;;10.30;7.03;;;;;;;;;;6242915;22;20502;-73
2022/03/22 06:22:35;;;;;;;12.98;8.30;;;;;;;;;;6243550;22;20192;-73
2022/03/22 06:25:01;;;;;;;15.95;8.27;;;;;;;;;;6269844;22;20061;-75
2022/03/22 06:27:28;;;;;;;14.23;7.68;;;;;;;;;;6219141;22;20057;-74
2022/03/22 06:29:54;;;;;;;19.98;7.40;;;;;;;;;;6269153;22;20073;-72
2022/03/22 06:32:20;;;;;;;19.13;8.20;;;;;;;;;;6242721;22;20008;-74
2022/03/22 06:34:47;;;;;;;14.02;8.23;;;;;;;;;;6269725;22;20016;-74
2022/03/22 06:37:13;;;;;;;21.67;7.20;;;;;;;;;;6216514;22;20015;-74
2022/03/22 06:39:39;;;;;;;18.20;7.55;;;;;;;;;;6270090;22;20011;-75
2022/03/22 06:42:05;;;;;;;16.08;7.80;;;;;;;;;;6242951;22;20558;-72
2022/03/22 06:44:37;;;;;;;23.75;7.70;;;;;;;;;;6242311;22;20011;-76
2022/03/22 06:47:04;;;;;;;20.00;7.28;;;;;;;;;;6242367;22;20011;-73
2022/03/22 06:49:29;;;;;;;17.20;7.75;;;;;;;;;;6269837;22;20019;-74
2022/03/22 06:51:56;;;;;;;14.80;7.63;;;;;;;;;;6269879;22;20035;-72
2022/03/22 06:54:22;;;;;;;15.43;8.00;;;;;;;;;;6269742;22;20418;-74
2022/03/22 06:56:48;;;;;;;16.17;7.65;;;;;;;;;;6242280;22;20509;-74
2022/03/22 06:59:14;;;;;;;13.13;7.72;;;;;;;;;;6269610;22;20089;-69
2022/03/22 07:01:40;;;;;;;19.05;8.43;;;;;;;;;;6213975;22;20020;-71
2022/03/22 07:04:06;;;;;;;11.65;7.45;;;;;;;;;;6267105;22;20517;-69
2022/03/22 07:06:32;;;;;;;18.52;7.72;;;;;;;;;;6267630;22;20023;-68
2022/03/22 07:08:58;;;;;;;17.77;6.90;;;;;;;;;;6268998;22;20019;-69
2022/03/22 07:14:09;;;;;;;12.73;6.30;;;;;;;;;;6268730;22;20012;-69
2022/03/22 07:16:36;;;;;;;20.35;7.05;;;;;;;;;;6242770;22;20012;-69
2022/03/22 07:19:02;;;;;;;18.95;7.00;;;;;;;;;;6242605;22;20372;-70
2022/03/22 07:21:29;;;;;;;10.43;7.00;;;;;;;;;;6269902;22;20018;-70
2022/03/22 07:23:55;;;;;;;15.00;6.32;;;;;;;;;;6243577;22;20039;-68
2022/03/22 07:26:22;;;;;;;12.63;5.40;;;;;;;;;;6270264;22;20379;-67
2022/03/22 07:28:48;;;;;;;13.40;5.85;;;;;;;;;;6243048;22;20019;-66
2022/03/22 07:31:14;;;;;;;11.25;4.80;;;;;;;;;;6241913;22;20482;-69
2022/03/22 07:33:40;;;;;;;13.00;4.80;;;;;;;;;;6243298;22;20484;-69
2022/03/22 07:36:06;;;;;;;10.98;4.65;;;;;;;;;;6268934;22;20019;-67
2022/03/22 07:38:32;;;;;;;13.32;5.38;;;;;;;;;;6242395;22;20016;-68
2022/03/22 07:40:58;;;;;;;11.52;5.45;;;;;;;;;;6270332;22;20069;-67
2022/03/22 07:43:26;;;;;;;13.35;4.93;;;;;;;;;;6243905;22;20012;-66
2022/03/22 07:45:52;;;;;;;11.45;5.20;;;;;;;;;;6270637;22;20012;-67
2022/03/22 07:48:21;;;;;;;7.43;4.47;;;;;;;;;;6268883;22;20525;-69
2022/03/22 07:53:31;;;;;;;13.20;4.50;;;;;;;;;;6270491;22;20357;-68
2022/03/22 07:55:56;;;;;;;15.27;4.95;;;;;;;;;;6270103;22;20030;-69
2022/03/22 07:58:22;;;;;;;14.15;4.60;;;;;;;;;;6245216;22;20085;-68
2022/03/22 08:00:49;;;;;;;14.20;4.88;;;;;;;;;;6244806;22;20383;-68
2022/03/22 08:03:18;;;;;;;9.95;4.25;;;;;;;;;;6272810;22;20012;-68
2022/03/22 08:05:47;;;;;;;9.60;4.10;;;;;;;;;;6272173;22;20015;-68
2022/03/22 08:08:13;;;;;;;9.70;4.05;;;;;;;;;;6220340;22;20019;-68
2022/03/22 08:10:40;;;;;;;5.68;4.00;;;;;;;;;;6272570;22;20011;-68
2022/03/22 08:13:06;;;;;;;12.05;3.63;;;;;;;;;;6270710;22;20066;-68
2022/03/22 08:15:32;;;;;;;8.50;3.13;;;;;;;;;;6270585;22;20008;-68
2022/03/22 08:17:58;;;;;;;7.05;3.40;;;;;;;;;;6272220;22;20103;-68
2022/03/22 08:20:27;;;;;;;13.27;3.03;;;;;;;;;;6272398;22;20024;-68
2022/03/22 08:22:58;;;;;;;12.73;3.60;;;;;;;;;;6272371;22;20012;-68
2022/03/22 08:25:24;;;;;;;17.55;3.70;;;;;;;;;;6272271;22;20094;-68
2022/03/22 08:27:50;;;;;;;6.95;3.50;;;;;;;;;;6245009;22;20035;-68
2022/03/22 08:30:20;;;;;;;6.38;2.97;;;;;;;;;;6271797;22;20329;-68
2022/03/22 08:32:49;;;;;;;8.18;3.03;;;;;;;;;;6272021;22;20066;-69
2022/03/22 08:35:15;;;;;;;10.63;3.28;;;;;;;;;;6245268;22;20018;-69
2022/03/22 08:37:42;;;;;;;4.88;2.58;;;;;;;;;;6244630;22;20375;-69
2022/03/22 08:40:09;;;;;;;5.03;2.75;;;;;;;;;;6272180;22;20115;-69
2022/03/22 08:42:43;;;;;;;4.82;2.50;;;;;;;;;;6272311;22;20011;-67
2022/03/22 08:45:10;;;;;;;6.88;2.88;;;;;;;;;;6246302;22;20016;-70
2022/03/22 08:47:36;;;;;;;12.88;2.90;;;;;;;;;;6271202;22;20018;-69
2022/03/22 08:50:05;;;;;;;5.55;2.42;;;;;;;;;;6244510;22;20016;-68
2022/03/22 08:52:31;;;;;;;4.22;2.17;;;;;;;;;;6272987;22;20019;-69
2022/03/22 08:54:57;;;;;;;6.65;2.60;;;;;;;;;;6245259;22;20359;-68
2022/03/22 08:57:23;;;;;;;5.53;2.50;;;;;;;;;;6214166;23;20027;-68
2022/03/22 08:59:49;;;;;;;6.70;2.60;;;;;;;;;;6241156;23;20563;-70
2022/03/22 09:02:15;;;;;;;6.60;2.75;;;;;;;;;;6215073;23;20020;-68
2022/03/22 09:07:25;;;;;;;10.35;2.70;;;;;;;;;;6240736;23;20013;-69
2022/03/22 09:09:51;;;;;;;4.03;2.45;;;;;;;;;;6241048;23;20023;-68
2022/03/22 09:12:17;;;;;;;7.28;2.40;;;;;;;;;;6242480;23;20007;-68
2022/03/22 09:14:43;;;;;;;5.32;2.53;;;;;;;;;;6240905;23;20521;-69
2022/03/22 09:17:09;;;;;;;5.75;2.35;;;;;;;;;;6242594;23;20330;-69
2022/03/22 09:19:36;;;;;;;7.85;2.92;;;;;;;;;;6215164;23;20403;-68
2022/03/22 09:22:05;;;;;;;4.70;2.15;;;;;;;;;;6242045;23;20016;-68
2022/03/22 09:24:37;;;;;;;3.78;2.75;;;;;;;;;;6240995;23;20403;-68
2022/03/22 09:27:03;;;;;;;2.95;2.33;;;;;;;;;;6212383;23;20007;-68
2022/03/22 09:29:29;;;;;;;2.63;2.00;;;;;;;;;;6241173;23;20024;-67
2022/03/22 09:31:56;;;;;;;6.93;2.45;;;;;;;;;;6240207;23;20051;-67
2022/03/22 09:34:24;;;;;;;11.80;3.03;;;;;;;;;;6240758;23;20020;-67
2022/03/22 09:36:50;;;;;;;3.63;2.20;;;;;;;;;;6241782;23;20008;-68
2022/03/22 09:39:19;;;;;;;7.75;2.90;;;;;;;;;;6242198;23;20488;-68
2022/03/22 09:41:44;;;;;;;1.73;1.60;;;;;;;;;;6242013;23;20012;-68
2022/03/22 09:44:11;;;;;;;9.38;2.60;;;;;;;;;;6240655;23;20482;-67
2022/03/22 09:46:37;;;;;;;6.82;2.60;;;;;;;;;;6242258;23;20011;-68
2022/03/22 09:49:03;;;;;;;7.18;2.50;;;;;;;;;;6242092;23;20047;-68
2022/03/22 09:51:50;;;;;;;6.60;2.17;;;;;;;;;;6240596;23;20032;-68
2022/03/22 09:54:17;;;;;;;6.03;2.25;;;;;;;;;;6242322;23;20027;-67
2022/03/22 09:56:43;;;;;;;5.05;2.50;;;;;;;;;;6250195;22;20353;-68
2022/03/22 09:59:09;;;;;;;7.18;2.10;;;;;;;;;;6272726;22;20023;-68
2022/03/22 10:01:36;;;;;;;7.32;2.20;;;;;;;;;;6272889;22;20016;-68
2022/03/22 10:04:06;;;;;;;3.80;2.10;;;;;;;;;;6220841;22;20416;-68
2022/03/22 10:06:32;;;;;;;4.82;1.92;;;;;;;;;;6272798;22;20014;-68
2022/03/22 10:08:58;;;;;;;2.70;2.05;;;;;;;;;;6273352;22;20057;-68
2022/03/22 10:11:40;;;;;;;3.00;2.08;;;;;;;;;;6273089;22;20011;-69
2022/03/22 10:14:10;;;;;;;5.47;2.05;;;;;;;;;;6272612;22;20058;-68
2022/03/22 10:16:45;;;;;;;2.95;2.20;;;;;;;;;;6246141;22;20455;-68
2022/03/22 10:19:18;;;;;;;2.25;1.50;;;;;;;;;;6243721;22;20024;-68
2022/03/22 10:21:44;;;;;;;2.80;1.70;;;;;;;;;;6266368;22;20011;-68
2022/03/22 10:24:12;;;;;;;9.73;2.22;;;;;;;;;;6218323;22;20016;-68
2022/03/22 10:26:38;;;;;;;8.13;2.03;;;;;;;;;;6271549;22;20011;-67
2022/03/22 10:29:07;;;;;;;7.50;2.20;;;;;;;;;;6270989;22;20008;-68
2022/03/22 10:31:33;;;;;;;5.07;1.90;;;;;;;;;;6271194;22;20343;-70
2022/03/22 10:33:59;;;;;;;11.73;2.15;;;;;;;;;;6270699;22;20424;-68
2022/03/22 10:36:26;;;;;;;4.55;2.15;;;;;;;;;;6271149;22;20594;-69
2022/03/22 10:38:55;;;;;;;3.33;1.95;;;;;;;;;;6269918;22;20514;-69
2022/03/22 10:41:25;;;;;;;5.65;1.88;;;;;;;;;;6242954;22;20483;-67
2022/03/22 10:44:23;;;;;;;4.00;2.17;;;;;;;;;;6270811;22;20379;-68
2022/03/22 10:46:49;;;;;;;5.22;1.92;;;;;;;;;;6239601;22;20102;-68
2022/03/22 10:49:16;;;;;;;3.67;1.70;;;;;;;;;;6274763;22;20052;-69
2022/03/22 10:51:48;;;;;;;1.52;1.38;;;;;;;;;;6269985;22;20012;-68
2022/03/22 10:54:17;;;;;;;5.18;2.03;;;;;;;;;;6244282;22;20011;-69
2022/03/22 10:56:47;;;;;;;3.08;1.73;;;;;;;;;;6238523;23;20027;-69
2022/03/22 10:59:14;;;;;;;6.18;3.08;;;;;;;;;;6213504;23;20024;-68
2022/03/22 11:01:42;;;;;;;5.10;1.90;;;;;;;;;;6240348;23;20082;-69
2022/03/22 11:04:07;;;;;;;2.13;1.42;;;;;;;;;;6240537;23;20012;-67
2022/03/22 11:06:33;;;;;;;7.25;2.65;;;;;;;;;;6240217;23;20058;-67
2022/03/22 11:24:43;;;;;;;5.78;2.28;;;;;;;;;;6237881;23;20019;-68
2022/03/22 11:27:09;;;;;;;2.28;1.75;;;;;;;;;;6240030;23;20016;-66
2022/03/22 11:29:39;;;;;;;2.47;2.10;;;;;;;;;;6239879;23;20110;-67
2022/03/22 11:35:00;;;;;;;1.05;1.05;;;;;;;;;;6242111;23;20514;-69
2022/03/22 11:37:30;;;;;;;3.28;1.80;;;;;;;;;;6215250;23;20030;-68
2022/03/22 11:42:51;;;;;;;4.55;2.17;;;;;;;;;;6240029;23;20062;-70
2022/03/22 11:45:17;;;;;;;1.42;1.30;;;;;;;;;;6243528;23;20042;-68
2022/03/22 11:47:43;;;;;;;4.10;1.75;;;;;;;;;;6243034;23;20034;-68
2022/03/22 11:50:10;;;;;;;4.95;1.80;;;;;;;;;;6241362;23;20008;-69
2022/03/22 11:52:37;;;;;;;4.25;2.03;;;;;;;;;;6215571;23;20027;-70
2022/03/22 11:55:30;;;;;;;4.47;2.00;;;;;;;;;;6242772;23;20489;-68
2022/03/22 11:57:56;;;;;;;2.25;1.90;;;;;;;;;;6211255;22;20028;-70
2022/03/22 12:00:23;;;;;;;3.58;1.42;;;;;;;;;;6245537;22;20020;-69
2022/03/22 12:02:53;;;;;;;6.03;1.48;;;;;;;;;;6272714;22;20090;-69
2022/03/22 12:05:19;;;;;;;6.13;1.88;;;;;;;;;;6272675;22;20019;-69
2022/03/22 12:07:45;;;;;;;4.45;2.05;;;;;;;;;;6271889;22;20008;-70
2022/03/22 12:10:11;;;;;;;2.00;1.38;;;;;;;;;;6272396;22;20015;-68
2022/03/22 12:12:37;;;;;;;3.70;1.63;;;;;;;;;;6245487;22;20007;-67
2022/03/22 12:15:04;;;;;;;1.95;1.75;;;;;;;;;;6272442;22;20073;-67
2022/03/22 12:17:30;;;;;;;2.70;1.70;;;;;;;;;;6270644;22;20023;-67
2022/03/22 12:20:01;;;;;;;2.78;1.70;;;;;;;;;;6272037;22;20023;-66
2022/03/22 12:22:27;;;;;;;4.93;1.70;;;;;;;;;;6271814;22;20012;-67
2022/03/22 12:24:52;;;;;;;10.80;1.98;;;;;;;;;;6271615;22;20015;-67
2022/03/22 12:27:19;;;;;;;5.00;1.60;;;;;;;;;;6271073;22;20016;-67
2022/03/22 12:29:45;;;;;;;5.35;1.65;;;;;;;;;;6244634;22;20008;-68
2022/03/22 12:32:11;;;;;;;4.90;1.80;;;;;;;;;;6245377;22;20046;-67
2022/03/22 12:34:37;;;;;;;2.33;1.33;;;;;;;;;;6272185;22;20012;-68
2022/03/22 12:37:04;;;;;;;1.83;1.10;;;;;;;;;;6245229;22;20102;-67
2022/03/22 12:39:29;;;;;;;1.73;1.23;;;;;;;;;;6245095;22;20030;-68
2022/03/22 12:41:57;;;;;;;2.53;1.60;;;;;;;;;;6271673;22;20084;-68
2022/03/22 12:44:25;;;;;;;4.95;1.92;;;;;;;;;;6245690;22;20016;-68
2022/03/22 12:46:51;;;;;;;4.28;2.05;;;;;;;;;;6245608;22;20007;-67
2022/03/22 12:49:17;;;;;;;1.60;1.50;;;;;;;;;;6272373;22;20462;-67
2022/03/22 12:51:43;;;;;;;1.92;1.52;;;;;;;;;;6272099;22;20018;-67
2022/03/22 12:54:11;;;;;;;2.33;1.63;;;;;;;;;;6272445;22;20015;-68
2022/03/22 12:56:37;;;;;;;3.45;1.70;;;;;;;;;;6244671;22;20549;-69
2022/03/22 12:59:03;;;;;;;1.48;1.27;;;;;;;;;;6245222;22;20039;-67
2022/03/22 13:01:40;;;;;;;3.22;1.52;;;;;;;;;;6244669;22;20396;-66
2022/03/22 13:04:06;;;;;;;2.15;1.70;;;;;;;;;;6245239;22;20019;-67
2022/03/22 13:06:32;;;;;;;1.95;1.85;;;;;;;;;;6219342;22;20015;-66
2022/03/22 13:11:42;;;;;;;4.93;2.60;;;;;;;;;;6271614;22;20041;-67
2022/03/22 13:16:57;;;;;;;2.85;1.77;;;;;;;;;;6271706;22;20014;-67
2022/03/22 13:19:29;;;;;;;2.03;1.85;;;;;;;;;;6272086;22;20020;-68
2022/03/22 13:21:58;;;;;;;6.70;2.00;;;;;;;;;;6271470;22;20083;-67
2022/03/22 13:24:24;;;;;;;3.47;1.83;;;;;;;;;;6270339;22;20131;-68
2022/03/22 13:26:57;;;;;;;3.75;1.80;;;;;;;;;;6269026;22;20035;-68
2022/03/22 13:29:24;;;;;;;1.92;1.50;;;;;;;;;;6271720;22;20502;-67
2022/03/22 13:31:53;;;;;;;1.70;1.60;;;;;;;;;;6272160;22;20527;-67
2022/03/22 13:34:20;;;;;;;2.45;1.80;;;;;;;;;;6245236;22;20371;-67
2022/03/22 13:36:46;;;;;;;6.68;1.90;;;;;;;;;;6269950;22;20039;-67
2022/03/22 13:39:12;;;;;;;6.57;1.98;;;;;;;;;;6245063;22;20050;-67
2022/03/22 13:41:38;;;;;;;4.20;1.73;;;;;;;;;;6244587;22;20036;-67
2022/03/22 13:44:04;;;;;;;12.48;2.55;;;;;;;;;;6271515;22;20022;-67
2022/03/22 13:46:29;;;;;;;1.38;1.30;;;;;;;;;;6271302;22;20066;-67
2022/03/22 13:48:57;;;;;;;1.75;1.65;;;;;;;;;;6271515;22;20038;-67
2022/03/22 13:51:24;;;;;;;1.23;1.15;;;;;;;;;;6270167;22;20015;-68
2022/03/22 13:53:52;;;;;;;2.17;1.15;;;;;;;;;;6270741;22;20398;-66
2022/03/22 13:56:22;;;;;;;2.60;2.40;;;;;;;;;;6270998;22;20102;-68
2022/03/22 13:58:49;;;;;;;3.13;2.40;;;;;;;;;;6271061;22;20012;-68
2022/03/22 14:01:15;;;;;;;1.55;1.45;;;;;;;;;;6270171;22;20015;-67
2022/03/22 14:03:41;;;;;;;1.65;1.38;;;;;;;;;;6271471;22;20053;-68
2022/03/22 14:06:08;;;;;;;6.00;1.50;;;;;;;;;;6271779;22;20015;-67
2022/03/22 14:08:34;;;;;;;1.90;1.77;;;;;;;;;;6271159;22;20451;-67
2022/03/22 14:11:00;;;;;;;1.80;1.70;;;;;;;;;;6271419;22;20141;-67
2022/03/22 14:13:28;;;;;;;1.27;1.25;;;;;;;;;;6270765;22;20050;-67
2022/03/22 14:15:55;;;;;;;1.40;1.27;;;;;;;;;;6243843;22;20035;-67
2022/03/22 14:18:23;;;;;;;2.97;1.67;;;;;;;;;;6270469;22;20532;-68
2022/03/22 14:20:50;;;;;;;2.65;1.70;;;;;;;;;;6269286;22;20483;-67
2022/03/22 14:23:16;;;;;;;2.92;1.92;;;;;;;;;;6270452;22;20012;-67
2022/03/22 14:25:42;;;;;;;4.80;1.90;;;;;;;;;;6270597;22;20011;-68
2022/03/22 14:28:08;;;;;;;2.47;1.90;;;;;;;;;;6244050;22;20463;-66
2022/03/22 14:30:34;;;;;;;1.77;1.67;;;;;;;;;;6244256;22;20015;-67
2022/03/22 14:33:03;;;;;;;7.75;1.95;;;;;;;;;;6243668;22;20436;-66
2022/03/22 14:35:47;;;;;;;9.27;2.20;;;;;;;;;;6271101;22;20023;-66
2022/03/22 14:38:14;;;;;;;7.88;1.90;;;;;;;;;;6222379;22;20458;-68
2022/03/22 14:40:40;;;;;;;4.43;1.95;;;;;;;;;;6269879;22;20030;-67
2022/03/22 14:43:07;;;;;;;8.25;2.22;;;;;;;;;;6243858;22;20019;-67
2022/03/22 14:45:32;;;;;;;11.18;2.08;;;;;;;;;;6243843;22;20073;-67
2022/03/22 14:47:58;;;;;;;2.67;2.05;;;;;;;;;;6243298;22;20027;-66
2022/03/22 14:50:27;;;;;;;2.08;1.58;;;;;;;;;;6270922;22;20075;-66
2022/03/22 14:55:37;;;;;;;6.78;2.28;;;;;;;;;;6271251;22;20018;-66
2022/03/22 15:00:53;;;;;;;10.80;2.33;;;;;;;;;;6270415;22;20365;-67
2022/03/22 15:03:21;;;;;;;3.38;2.50;;;;;;;;;;6245340;22;20007;-67
2022/03/22 15:05:51;;;;;;;3.13;2.42;;;;;;;;;;6270060;22;20016;-67
2022/03/22 15:08:17;;;;;;;;;;;;;;;;;;6271287;22;20117;-67
2022/03/22 15:10:44;;;;;;;2.85;2.10;;;;;;;;;;6242833;22;20398;-67
2022/03/22 15:13:10;;;;;;;8.65;2.67;;;;;;;;;;6243746;22;20050;-67
2022/03/22 15:15:39;;;;;;;4.97;2.83;;;;;;;;;;6244454;22;20575;-67
2022/03/22 15:18:05;;;;;;;4.03;2.28;;;;;;;;;;6243756;22;20012;-68
2022/03/22 15:20:34;;;;;;;4.60;2.20;;;;;;;;;;6270495;22;20020;-71
2022/03/22 15:23:00;;;;;;;11.95;2.55;;;;;;;;;;6270194;22;20102;-70
2022/03/22 15:25:26;;;;;;;2.35;2.20;;;;;;;;;;6244043;22;20019;-70
2022/03/22 15:27:52;;;;;;;2.72;2.53;;;;;;;;;;6243638;22;20011;-71
2022/03/22 15:30:19;;;;;;;7.90;2.53;;;;;;;;;;6218355;22;20106;-70
2022/03/22 15:32:47;;;;;;;10.00;2.90;;;;;;;;;;6270340;22;20012;-71
2022/03/22 15:35:14;;;;;;;3.45;2.47;;;;;;;;;;6268893;22;20015;-71
2022/03/22 15:37:41;;;;;;;8.82;2.50;;;;;;;;;;6243647;22;20011;-71
2022/03/22 15:40:08;;;;;;;3.40;2.30;;;;;;;;;;6218016;22;20055;-71
2022/03/22 15:42:34;;;;;;;3.15;2.00;;;;;;;;;;6268779;22;20072;-71